Список аэропортов
Фактическая погода:

25 июня, 11:30
Температура: +18°C (+17.2*)
Ветер: сев.-западный 7 м/с
Давление: *753 мм
разорв. обл.
1380 м
Время (МСК)Темп. СВетерВлажностьДавлениеОблачностьОсадки
09:00+19СЗ, 5 м/с48%1003 гПаясно
10:00+19СЗ, 5 м/с46%1004 гПамалооблачно
11:00+20СЗ, 5 м/с44%1004 гПас прояснениями
12:00+19СЗ, 5 м/с44%1004 гПаоблачно
13:00+19З, 5 м/с48%1005 гПаоблачно
14:00+19СЗ, 5 м/с47%1005 гПаоблачно
15:00+19СЗ, 5 м/с44%1005 гПаоблачно
16:00+20СЗ, 5 м/с41%1005 гПаоблачно
17:00+19СЗ, 5 м/с41%1006 гПаоблачно
18:00+19СЗ, 5 м/с44%1006 гПаоблачно
19:00+18СЗ, 4 м/с48%1007 гПаоблачно
20:00+17СЗ, 3 м/с56%1007 гПас прояснениями
21:00+14СЗ, 1 м/с71%1008 гПас прояснениями
22:00+12З, 1 м/с81%1009 гПамалооблачно
23:00+12ЮЗ, 1 м/с87%1009 гПаясно
26 июня
00:00+11Ю, 1 м/с92%1009 гПамалооблачно
01:00+11Ю, 2 м/с95%1009 гПаоблачно
02:00+11Ю, 2 м/с96%1010 гПаоблачно
03:00+12Ю, 2 м/с94%1010 гПаоблачносл. дождь
04:00+12Ю, 2 м/с92%1009 гПаоблачно
05:00+13Ю, 2 м/с87%1009 гПаоблачно
06:00+14Ю, 3 м/с81%1009 гПаоблачно
07:00+16Ю, 4 м/с78%1009 гПаоблачно
08:00+20Ю, 4 м/с60%1008 гПаоблачно
09:00+22ЮЗ, 5 м/с51%1008 гПас прояснениями
10:00+22ЮЗ, 5 м/с49%1008 гПас прояснениями
11:00+22ЮЗ, 6 м/с53%1008 гПаоблачно
12:00+22ЮЗ, 6 м/с52%1008 гПаоблачно
13:00+22ЮЗ, 6 м/с53%1008 гПаоблачно
14:00+24ЮЗ, 6 м/с52%1008 гПаоблачносл. дождь
15:00+23ЮЗ, 5 м/с56%1008 гПаоблачнодождь
16:00+22ЮЗ, 5 м/с60%1008 гПаоблачнодождь
17:00+22Ю, 4 м/с77%1007 гПас прояснениямидождь
18:00+22ЮЗ, 4 м/с71%1007 гПас прояснениямисл. дождь
19:00+21ЮЗ, 3 м/с76%1007 гПаоблачнодождь
20:00+20ЮЗ, 3 м/с79%1007 гПаоблачно
21:00+19ЮЗ, 3 м/с85%1007 гПаясно
22:00+18Ю, 3 м/с92%1007 гПаясно
23:00+17Ю, 3 м/с95%1007 гПаясно
27 июня
00:00+17Ю, 3 м/с95%1007 гПаясно
01:00+16Ю, 3 м/с95%1007 гПаясно
02:00+16Ю, 3 м/с94%1006 гПас прояснениями
03:00+17Ю, 4 м/с92%1006 гПаясно
04:00+17Ю, 4 м/с90%1006 гПаоблачно
05:00+18Ю, 5 м/с88%1005 гПаоблачно
06:00+19Ю, 6 м/с83%1005 гПаоблачносл. дождь
07:00+19Ю, 6 м/с85%1004 гПаоблачнодождь
08:00+19Ю, 6 м/с89%1004 гПаоблачнодождь
09:00+19Ю, 7 м/с88%1004 гПаоблачнодождь